sensor_id;sensor_type;location;lat;lon;timestamp;P1;durP1;ratioP1;P2;durP2;ratioP2
44816;SDS011;30529;53.570;9.964;2022-12-10T00:01:05;32.83;;;18.37;;
44816;SDS011;30529;53.570;9.964;2022-12-10T00:03:38;36.17;;;18.77;;
44816;SDS011;30529;53.570;9.964;2022-12-10T00:06:18;39.47;;;19.00;;
44816;SDS011;30529;53.570;9.964;2022-12-10T00:08:53;37.37;;;17.90;;
44816;SDS011;30529;53.570;9.964;2022-12-10T00:11:22;35.93;;;16.67;;
44816;SDS011;30529;53.570;9.964;2022-12-10T00:13:51;37.90;;;18.17;;
44816;SDS011;30529;53.570;9.964;2022-12-10T00:16:21;40.67;;;18.67;;
44816;SDS011;30529;53.570;9.964;2022-12-10T00:18:49;32.83;;;17.67;;
44816;SDS011;30529;53.570;9.964;2022-12-10T00:21:18;37.37;;;18.90;;
44816;SDS011;30529;53.570;9.964;2022-12-10T00:23:51;29.23;;;15.00;;
44816;SDS011;30529;53.570;9.964;2022-12-10T00:26:26;33.90;;;15.40;;
44816;SDS011;30529;53.570;9.964;2022-12-10T00:28:57;31.10;;;16.60;;
44816;SDS011;30529;53.570;9.964;2022-12-10T00:31:26;30.43;;;14.77;;
44816;SDS011;30529;53.570;9.964;2022-12-10T00:33:58;29.00;;;15.07;;
44816;SDS011;30529;53.570;9.964;2022-12-10T00:39:21;31.00;;;15.30;;
44816;SDS011;30529;53.570;9.964;2022-12-10T00:41:47;26.73;;;14.43;;
44816;SDS011;30529;53.570;9.964;2022-12-10T00:44:14;27.40;;;13.60;;
44816;SDS011;30529;53.570;9.964;2022-12-10T00:46:41;25.20;;;13.63;;
44816;SDS011;30529;53.570;9.964;2022-12-10T00:49:08;24.50;;;12.93;;
44816;SDS011;30529;53.570;9.964;2022-12-10T00:51:34;25.23;;;13.77;;
44816;SDS011;30529;53.570;9.964;2022-12-10T00:54:02;24.30;;;13.73;;
44816;SDS011;30529;53.570;9.964;2022-12-10T00:56:29;25.83;;;14.57;;
44816;SDS011;30529;53.570;9.964;2022-12-10T00:58:58;25.50;;;13.73;;
44816;SDS011;30529;53.570;9.964;2022-12-10T01:01:29;27.77;;;14.13;;
44816;SDS011;30529;53.570;9.964;2022-12-10T01:04:00;24.40;;;13.47;;
44816;SDS011;30529;53.570;9.964;2022-12-10T01:06:42;29.50;;;14.23;;
44816;SDS011;30529;53.570;9.964;2022-12-10T01:09:12;24.10;;;13.73;;
44816;SDS011;30529;53.570;9.964;2022-12-10T01:11:41;32.37;;;15.40;;
44816;SDS011;30529;53.570;9.964;2022-12-10T01:14:09;29.93;;;15.73;;
44816;SDS011;30529;53.570;9.964;2022-12-10T01:16:40;26.57;;;15.07;;
44816;SDS011;30529;53.570;9.964;2022-12-10T01:19:13;31.27;;;15.77;;
44816;SDS011;30529;53.570;9.964;2022-12-10T01:21:39;29.40;;;15.00;;
44816;SDS011;30529;53.570;9.964;2022-12-10T01:24:05;25.57;;;14.00;;
44816;SDS011;30529;53.570;9.964;2022-12-10T01:26:33;27.17;;;14.33;;
44816;SDS011;30529;53.570;9.964;2022-12-10T01:29:00;27.93;;;14.77;;
44816;SDS011;30529;53.570;9.964;2022-12-10T01:31:28;24.73;;;13.17;;
44816;SDS011;30529;53.570;9.964;2022-12-10T01:33:56;29.57;;;13.40;;
44816;SDS011;30529;53.570;9.964;2022-12-10T01:36:24;26.80;;;14.43;;
44816;SDS011;30529;53.570;9.964;2022-12-10T01:38:55;25.80;;;13.77;;
44816;SDS011;30529;53.570;9.964;2022-12-10T01:41:26;27.47;;;13.97;;
44816;SDS011;30529;53.570;9.964;2022-12-10T01:43:58;23.57;;;13.67;;
44816;SDS011;30529;53.570;9.964;2022-12-10T01:46:28;25.67;;;12.67;;
44816;SDS011;30529;53.570;9.964;2022-12-10T01:48:56;21.10;;;12.43;;
44816;SDS011;30529;53.570;9.964;2022-12-10T01:51:24;24.70;;;12.97;;
44816;SDS011;30529;53.570;9.964;2022-12-10T01:53:58;26.60;;;13.27;;
44816;SDS011;30529;53.570;9.964;2022-12-10T01:56:27;26.63;;;13.20;;
44816;SDS011;30529;53.570;9.964;2022-12-10T01:58:55;23.07;;;12.30;;
44816;SDS011;30529;53.570;9.964;2022-12-10T02:12:20;22.73;;;11.80;;
44816;SDS011;30529;53.570;9.964;2022-12-10T02:15:02;23.33;;;13.03;;
44816;SDS011;30529;53.570;9.964;2022-12-10T02:17:41;25.30;;;12.90;;
44816;SDS011;30529;53.570;9.964;2022-12-10T02:20:24;22.97;;;11.97;;
44816;SDS011;30529;53.570;9.964;2022-12-10T02:23:11;22.83;;;11.17;;
44816;SDS011;30529;53.570;9.964;2022-12-10T02:30:58;17.47;;;10.67;;
44816;SDS011;30529;53.570;9.964;2022-12-10T02:33:27;20.83;;;11.03;;
44816;SDS011;30529;53.570;9.964;2022-12-10T02:35:54;18.83;;;10.83;;
44816;SDS011;30529;53.570;9.964;2022-12-10T02:38:26;18.97;;;10.40;;
44816;SDS011;30529;53.570;9.964;2022-12-10T02:41:05;20.37;;;10.83;;
44816;SDS011;30529;53.570;9.964;2022-12-10T02:43:45;19.77;;;10.43;;
44816;SDS011;30529;53.570;9.964;2022-12-10T02:46:17;18.70;;;9.97;;
44816;SDS011;30529;53.570;9.964;2022-12-10T02:48:44;18.43;;;9.53;;
44816;SDS011;30529;53.570;9.964;2022-12-10T02:51:13;19.47;;;10.53;;
44816;SDS011;30529;53.570;9.964;2022-12-10T02:53:42;16.07;;;8.90;;
44816;SDS011;30529;53.570;9.964;2022-12-10T03:01:50;18.60;;;9.33;;
44816;SDS011;30529;53.570;9.964;2022-12-10T03:07:41;17.30;;;9.33;;
44816;SDS011;30529;53.570;9.964;2022-12-10T03:10:23;14.90;;;8.90;;
44816;SDS011;30529;53.570;9.964;2022-12-10T03:12:55;15.53;;;8.83;;
44816;SDS011;30529;53.570;9.964;2022-12-10T03:15:28;16.07;;;8.37;;
44816;SDS011;30529;53.570;9.964;2022-12-10T03:17:58;14.43;;;8.00;;
44816;SDS011;30529;53.570;9.964;2022-12-10T03:20:28;13.57;;;7.87;;
44816;SDS011;30529;53.570;9.964;2022-12-10T03:22:57;13.87;;;8.20;;
44816;SDS011;30529;53.570;9.964;2022-12-10T03:25:25;14.23;;;8.43;;
44816;SDS011;30529;53.570;9.964;2022-12-10T03:27:54;13.43;;;7.67;;
44816;SDS011;30529;53.570;9.964;2022-12-10T03:30:22;14.13;;;8.30;;
44816;SDS011;30529;53.570;9.964;2022-12-10T03:32:48;14.53;;;8.43;;
44816;SDS011;30529;53.570;9.964;2022-12-10T03:35:15;14.00;;;8.40;;
44816;SDS011;30529;53.570;9.964;2022-12-10T03:37:44;14.10;;;7.47;;
44816;SDS011;30529;53.570;9.964;2022-12-10T03:40:11;10.80;;;7.00;;
44816;SDS011;30529;53.570;9.964;2022-12-10T03:42:38;12.70;;;7.73;;
44816;SDS011;30529;53.570;9.964;2022-12-10T03:45:04;12.57;;;7.73;;
44816;SDS011;30529;53.570;9.964;2022-12-10T03:47:31;14.90;;;7.53;;
44816;SDS011;30529;53.570;9.964;2022-12-10T03:49:57;13.83;;;7.90;;
44816;SDS011;30529;53.570;9.964;2022-12-10T03:52:23;12.77;;;7.40;;
44816;SDS011;30529;53.570;9.964;2022-12-10T03:54:49;13.73;;;7.47;;
44816;SDS011;30529;53.570;9.964;2022-12-10T03:57:15;14.83;;;7.73;;
44816;SDS011;30529;53.570;9.964;2022-12-10T03:59:41;15.20;;;8.53;;
44816;SDS011;30529;53.570;9.964;2022-12-10T04:02:10;12.33;;;7.07;;
44816;SDS011;30529;53.570;9.964;2022-12-10T04:04:36;12.53;;;6.93;;
44816;SDS011;30529;53.570;9.964;2022-12-10T04:07:02;12.67;;;7.07;;
44816;SDS011;30529;53.570;9.964;2022-12-10T04:09:28;10.03;;;5.97;;
44816;SDS011;30529;53.570;9.964;2022-12-10T04:11:55;12.07;;;7.00;;
44816;SDS011;30529;53.570;9.964;2022-12-10T04:14:22;10.27;;;6.43;;
44816;SDS011;30529;53.570;9.964;2022-12-10T04:17:08;11.67;;;7.10;;
44816;SDS011;30529;53.570;9.964;2022-12-10T04:19:34;12.97;;;6.97;;
44816;SDS011;30529;53.570;9.964;2022-12-10T04:22:00;11.73;;;7.00;;
44816;SDS011;30529;53.570;9.964;2022-12-10T04:24:45;11.83;;;7.07;;
44816;SDS011;30529;53.570;9.964;2022-12-10T04:27:33;11.80;;;6.87;;
44816;SDS011;30529;53.570;9.964;2022-12-10T04:30:04;15.03;;;8.43;;
44816;SDS011;30529;53.570;9.964;2022-12-10T04:32:34;11.87;;;7.50;;
44816;SDS011;30529;53.570;9.964;2022-12-10T04:35:00;13.03;;;7.30;;
44816;SDS011;30529;53.570;9.964;2022-12-10T04:37:28;12.17;;;7.37;;
44816;SDS011;30529;53.570;9.964;2022-12-10T04:39:54;10.93;;;7.13;;
44816;SDS011;30529;53.570;9.964;2022-12-10T04:42:21;13.43;;;7.53;;
44816;SDS011;30529;53.570;9.964;2022-12-10T04:44:47;11.80;;;6.73;;
44816;SDS011;30529;53.570;9.964;2022-12-10T04:47:16;11.90;;;6.77;;
44816;SDS011;30529;53.570;9.964;2022-12-10T04:49:42;12.73;;;7.27;;
44816;SDS011;30529;53.570;9.964;2022-12-10T04:52:10;12.10;;;6.70;;
44816;SDS011;30529;53.570;9.964;2022-12-10T04:54:37;12.03;;;7.13;;
44816;SDS011;30529;53.570;9.964;2022-12-10T04:57:03;13.27;;;7.30;;
44816;SDS011;30529;53.570;9.964;2022-12-10T04:59:29;11.10;;;6.93;;
44816;SDS011;30529;53.570;9.964;2022-12-10T05:01:55;12.87;;;7.63;;
44816;SDS011;30529;53.570;9.964;2022-12-10T05:04:21;11.23;;;7.20;;
44816;SDS011;30529;53.570;9.964;2022-12-10T05:06:48;10.97;;;6.53;;
44816;SDS011;30529;53.570;9.964;2022-12-10T05:09:14;9.40;;;6.37;;
44816;SDS011;30529;53.570;9.964;2022-12-10T05:11:42;11.13;;;6.27;;
44816;SDS011;30529;53.570;9.964;2022-12-10T05:14:13;11.07;;;6.33;;
44816;SDS011;30529;53.570;9.964;2022-12-10T05:16:40;10.37;;;6.00;;
44816;SDS011;30529;53.570;9.964;2022-12-10T05:19:07;11.67;;;7.03;;
44816;SDS011;30529;53.570;9.964;2022-12-10T05:21:34;10.93;;;6.47;;
44816;SDS011;30529;53.570;9.964;2022-12-10T05:24:19;11.00;;;6.40;;
44816;SDS011;30529;53.570;9.964;2022-12-10T05:26:45;10.33;;;6.57;;
44816;SDS011;30529;53.570;9.964;2022-12-10T05:29:12;11.80;;;6.80;;
44816;SDS011;30529;53.570;9.964;2022-12-10T05:31:38;11.00;;;7.00;;
44816;SDS011;30529;53.570;9.964;2022-12-10T05:34:04;10.63;;;6.63;;
44816;SDS011;30529;53.570;9.964;2022-12-10T05:36:31;12.27;;;6.43;;
44816;SDS011;30529;53.570;9.964;2022-12-10T05:38:57;14.23;;;7.13;;
44816;SDS011;30529;53.570;9.964;2022-12-10T05:41:25;10.47;;;6.57;;
44816;SDS011;30529;53.570;9.964;2022-12-10T05:43:53;9.03;;;6.03;;
44816;SDS011;30529;53.570;9.964;2022-12-10T05:46:21;10.37;;;5.90;;
44816;SDS011;30529;53.570;9.964;2022-12-10T05:48:48;10.83;;;6.43;;
44816;SDS011;30529;53.570;9.964;2022-12-10T05:51:16;10.17;;;6.73;;
44816;SDS011;30529;53.570;9.964;2022-12-10T05:53:44;11.37;;;6.83;;
44816;SDS011;30529;53.570;9.964;2022-12-10T05:56:12;11.20;;;7.00;;
44816;SDS011;30529;53.570;9.964;2022-12-10T05:58:41;13.30;;;7.57;;
44816;SDS011;30529;53.570;9.964;2022-12-10T06:01:16;11.93;;;7.20;;
44816;SDS011;30529;53.570;9.964;2022-12-10T06:03:43;9.50;;;6.60;;
44816;SDS011;30529;53.570;9.964;2022-12-10T06:06:10;10.73;;;6.40;;
44816;SDS011;30529;53.570;9.964;2022-12-10T06:08:37;9.83;;;6.33;;
44816;SDS011;30529;53.570;9.964;2022-12-10T06:11:04;10.37;;;6.77;;
44816;SDS011;30529;53.570;9.964;2022-12-10T06:13:32;11.03;;;7.13;;
44816;SDS011;30529;53.570;9.964;2022-12-10T06:15:59;11.73;;;7.03;;
44816;SDS011;30529;53.570;9.964;2022-12-10T06:18:25;11.17;;;6.50;;
44816;SDS011;30529;53.570;9.964;2022-12-10T06:20:51;10.57;;;6.47;;
44816;SDS011;30529;53.570;9.964;2022-12-10T06:23:16;13.47;;;6.87;;
44816;SDS011;30529;53.570;9.964;2022-12-10T06:25:42;11.30;;;6.83;;
44816;SDS011;30529;53.570;9.964;2022-12-10T06:28:09;11.17;;;7.00;;
44816;SDS011;30529;53.570;9.964;2022-12-10T06:30:35;10.67;;;6.40;;
44816;SDS011;30529;53.570;9.964;2022-12-10T06:33:01;10.10;;;6.23;;
44816;SDS011;30529;53.570;9.964;2022-12-10T06:35:27;10.30;;;6.60;;
44816;SDS011;30529;53.570;9.964;2022-12-10T06:37:53;8.73;;;5.70;;
44816;SDS011;30529;53.570;9.964;2022-12-10T06:40:19;11.63;;;6.83;;
44816;SDS011;30529;53.570;9.964;2022-12-10T06:42:45;9.77;;;5.93;;
44816;SDS011;30529;53.570;9.964;2022-12-10T06:45:12;10.80;;;6.77;;
44816;SDS011;30529;53.570;9.964;2022-12-10T06:47:38;9.97;;;6.07;;
44816;SDS011;30529;53.570;9.964;2022-12-10T06:50:04;8.47;;;5.60;;
44816;SDS011;30529;53.570;9.964;2022-12-10T06:52:30;10.53;;;5.80;;
44816;SDS011;30529;53.570;9.964;2022-12-10T06:54:56;9.50;;;6.17;;
44816;SDS011;30529;53.570;9.964;2022-12-10T06:57:22;11.20;;;5.90;;
44816;SDS011;30529;53.570;9.964;2022-12-10T06:59:48;10.17;;;6.07;;
44816;SDS011;30529;53.570;9.964;2022-12-10T07:02:14;8.43;;;5.63;;
44816;SDS011;30529;53.570;9.964;2022-12-10T07:04:40;10.80;;;6.20;;
44816;SDS011;30529;53.570;9.964;2022-12-10T07:07:06;11.10;;;5.90;;
44816;SDS011;30529;53.570;9.964;2022-12-10T07:09:32;8.60;;;6.20;;
44816;SDS011;30529;53.570;9.964;2022-12-10T07:11:59;9.07;;;5.80;;
44816;SDS011;30529;53.570;9.964;2022-12-10T07:14:25;9.90;;;5.80;;
44816;SDS011;30529;53.570;9.964;2022-12-10T07:16:51;10.27;;;6.20;;
44816;SDS011;30529;53.570;9.964;2022-12-10T07:19:17;9.73;;;6.37;;
44816;SDS011;30529;53.570;9.964;2022-12-10T07:21:43;10.60;;;6.50;;
44816;SDS011;30529;53.570;9.964;2022-12-10T07:24:13;8.67;;;5.50;;
44816;SDS011;30529;53.570;9.964;2022-12-10T07:26:42;11.20;;;6.60;;
44816;SDS011;30529;53.570;9.964;2022-12-10T07:29:11;11.10;;;6.30;;
44816;SDS011;30529;53.570;9.964;2022-12-10T07:31:39;12.60;;;6.33;;
44816;SDS011;30529;53.570;9.964;2022-12-10T07:34:05;10.07;;;5.73;;
44816;SDS011;30529;53.570;9.964;2022-12-10T07:36:32;10.23;;;6.83;;
44816;SDS011;30529;53.570;9.964;2022-12-10T07:38:58;11.20;;;6.70;;
44816;SDS011;30529;53.570;9.964;2022-12-10T07:41:24;10.27;;;6.53;;
44816;SDS011;30529;53.570;9.964;2022-12-10T07:43:51;10.57;;;6.80;;
44816;SDS011;30529;53.570;9.964;2022-12-10T07:46:21;11.63;;;6.47;;
44816;SDS011;30529;53.570;9.964;2022-12-10T07:48:50;14.20;;;7.03;;
44816;SDS011;30529;53.570;9.964;2022-12-10T07:51:16;10.17;;;6.30;;
44816;SDS011;30529;53.570;9.964;2022-12-10T07:53:43;10.60;;;5.67;;
44816;SDS011;30529;53.570;9.964;2022-12-10T07:56:10;9.00;;;6.07;;
44816;SDS011;30529;53.570;9.964;2022-12-10T07:58:37;9.80;;;6.20;;
44816;SDS011;30529;53.570;9.964;2022-12-10T08:01:07;8.93;;;5.43;;
44816;SDS011;30529;53.570;9.964;2022-12-10T08:03:38;24.23;;;8.77;;
44816;SDS011;30529;53.570;9.964;2022-12-10T08:06:09;20.63;;;6.60;;
44816;SDS011;30529;53.570;9.964;2022-12-10T08:08:38;9.33;;;6.80;;
44816;SDS011;30529;53.570;9.964;2022-12-10T08:11:05;8.47;;;5.27;;
44816;SDS011;30529;53.570;9.964;2022-12-10T08:13:32;8.53;;;5.40;;
44816;SDS011;30529;53.570;9.964;2022-12-10T08:16:00;10.23;;;5.50;;
44816;SDS011;30529;53.570;9.964;2022-12-10T08:18:28;8.23;;;5.70;;
44816;SDS011;30529;53.570;9.964;2022-12-10T08:20:54;9.53;;;6.07;;
44816;SDS011;30529;53.570;9.964;2022-12-10T08:23:20;8.63;;;5.83;;
44816;SDS011;30529;53.570;9.964;2022-12-10T08:25:46;11.53;;;6.13;;
44816;SDS011;30529;53.570;9.964;2022-12-10T08:28:12;16.37;;;6.60;;
44816;SDS011;30529;53.570;9.964;2022-12-10T08:30:38;14.97;;;7.27;;
44816;SDS011;30529;53.570;9.964;2022-12-10T08:33:04;12.97;;;6.63;;
44816;SDS011;30529;53.570;9.964;2022-12-10T08:35:30;10.47;;;6.80;;
44816;SDS011;30529;53.570;9.964;2022-12-10T08:37:56;13.00;;;6.97;;
44816;SDS011;30529;53.570;9.964;2022-12-10T08:40:22;11.13;;;6.93;;
44816;SDS011;30529;53.570;9.964;2022-12-10T08:42:48;10.53;;;6.70;;
44816;SDS011;30529;53.570;9.964;2022-12-10T08:45:14;11.17;;;5.70;;
44816;SDS011;30529;53.570;9.964;2022-12-10T08:47:40;10.13;;;6.63;;
44816;SDS011;30529;53.570;9.964;2022-12-10T08:50:06;8.93;;;6.20;;
44816;SDS011;30529;53.570;9.964;2022-12-10T08:52:32;10.13;;;6.97;;
44816;SDS011;30529;53.570;9.964;2022-12-10T08:54:58;11.87;;;6.57;;
44816;SDS011;30529;53.570;9.964;2022-12-10T08:57:24;10.33;;;6.70;;
44816;SDS011;30529;53.570;9.964;2022-12-10T08:59:49;10.93;;;6.83;;
44816;SDS011;30529;53.570;9.964;2022-12-10T09:02:15;9.90;;;6.77;;
44816;SDS011;30529;53.570;9.964;2022-12-10T09:04:41;10.60;;;6.67;;
44816;SDS011;30529;53.570;9.964;2022-12-10T09:07:08;10.23;;;6.30;;
44816;SDS011;30529;53.570;9.964;2022-12-10T09:09:33;9.47;;;6.53;;
44816;SDS011;30529;53.570;9.964;2022-12-10T09:11:59;10.47;;;7.17;;
44816;SDS011;30529;53.570;9.964;2022-12-10T09:14:25;8.23;;;5.90;;
44816;SDS011;30529;53.570;9.964;2022-12-10T09:16:52;10.57;;;6.87;;
44816;SDS011;30529;53.570;9.964;2022-12-10T09:19:18;11.50;;;7.27;;
44816;SDS011;30529;53.570;9.964;2022-12-10T09:21:44;8.83;;;6.70;;
44816;SDS011;30529;53.570;9.964;2022-12-10T09:24:10;11.13;;;6.93;;
44816;SDS011;30529;53.570;9.964;2022-12-10T09:26:36;11.77;;;7.23;;
44816;SDS011;30529;53.570;9.964;2022-12-10T09:29:02;11.17;;;7.33;;
44816;SDS011;30529;53.570;9.964;2022-12-10T09:31:31;12.83;;;7.73;;
44816;SDS011;30529;53.570;9.964;2022-12-10T09:33:57;12.67;;;7.50;;
44816;SDS011;30529;53.570;9.964;2022-12-10T09:36:23;9.37;;;6.60;;
44816;SDS011;30529;53.570;9.964;2022-12-10T09:38:49;11.77;;;7.83;;
44816;SDS011;30529;53.570;9.964;2022-12-10T09:46:52;12.87;;;7.13;;
44816;SDS011;30529;53.570;9.964;2022-12-10T09:49:28;10.43;;;6.97;;
44816;SDS011;30529;53.570;9.964;2022-12-10T09:51:57;12.40;;;7.80;;
44816;SDS011;30529;53.570;9.964;2022-12-10T09:54:28;14.23;;;7.50;;
44816;SDS011;30529;53.570;9.964;2022-12-10T09:57:00;12.03;;;6.70;;
44816;SDS011;30529;53.570;9.964;2022-12-10T10:02:00;14.13;;;7.77;;
44816;SDS011;30529;53.570;9.964;2022-12-10T10:04:44;11.20;;;6.60;;
44816;SDS011;30529;53.570;9.964;2022-12-10T10:07:19;10.67;;;7.40;;
44816;SDS011;30529;53.570;9.964;2022-12-10T10:09:49;10.93;;;7.70;;
44816;SDS011;30529;53.570;9.964;2022-12-10T10:12:20;15.67;;;8.00;;
44816;SDS011;30529;53.570;9.964;2022-12-10T10:14:46;12.33;;;7.63;;
44816;SDS011;30529;53.570;9.964;2022-12-10T10:17:14;12.57;;;8.23;;
44816;SDS011;30529;53.570;9.964;2022-12-10T10:19:46;16.17;;;8.00;;
44816;SDS011;30529;53.570;9.964;2022-12-10T10:22:12;14.03;;;8.40;;
44816;SDS011;30529;53.570;9.964;2022-12-10T10:24:42;12.43;;;7.13;;
44816;SDS011;30529;53.570;9.964;2022-12-10T10:27:17;14.07;;;8.07;;
44816;SDS011;30529;53.570;9.964;2022-12-10T10:29:54;13.40;;;6.80;;
44816;SDS011;30529;53.570;9.964;2022-12-10T10:32:25;13.13;;;6.90;;
44816;SDS011;30529;53.570;9.964;2022-12-10T10:35:01;11.67;;;6.60;;
44816;SDS011;30529;53.570;9.964;2022-12-10T10:39:56;8.93;;;5.00;;
44816;SDS011;30529;53.570;9.964;2022-12-10T10:42:39;13.90;;;6.70;;
44816;SDS011;30529;53.570;9.964;2022-12-10T10:45:50;8.37;;;4.83;;
44816;SDS011;30529;53.570;9.964;2022-12-10T10:48:18;13.10;;;5.57;;
44816;SDS011;30529;53.570;9.964;2022-12-10T10:51:27;9.47;;;6.07;;
44816;SDS011;30529;53.570;9.964;2022-12-10T10:53:41;12.97;;;5.80;;
44816;SDS011;30529;53.570;9.964;2022-12-10T10:56:10;14.23;;;7.57;;
44816;SDS011;30529;53.570;9.964;2022-12-10T10:58:56;14.10;;;5.70;;
44816;SDS011;30529;53.570;9.964;2022-12-10T11:01:45;11.03;;;5.50;;
44816;SDS011;30529;53.570;9.964;2022-12-10T11:04:21;10.77;;;5.67;;
44816;SDS011;30529;53.570;9.964;2022-12-10T11:06:55;7.87;;;5.20;;
44816;SDS011;30529;53.570;9.964;2022-12-10T11:09:26;8.07;;;5.13;;
44816;SDS011;30529;53.570;9.964;2022-12-10T11:11:58;13.30;;;6.07;;
44816;SDS011;30529;53.570;9.964;2022-12-10T11:14:30;11.47;;;5.90;;
44816;SDS011;30529;53.570;9.964;2022-12-10T11:17:01;10.73;;;5.80;;
44816;SDS011;30529;53.570;9.964;2022-12-10T11:19:41;9.67;;;6.43;;
44816;SDS011;30529;53.570;9.964;2022-12-10T11:22:16;11.40;;;6.40;;
44816;SDS011;30529;53.570;9.964;2022-12-10T11:24:46;9.03;;;5.83;;
44816;SDS011;30529;53.570;9.964;2022-12-10T11:27:19;8.67;;;5.80;;
44816;SDS011;30529;53.570;9.964;2022-12-10T11:29:55;7.73;;;4.97;;
44816;SDS011;30529;53.570;9.964;2022-12-10T11:33:15;9.87;;;5.97;;
44816;SDS011;30529;53.570;9.964;2022-12-10T11:38:32;9.47;;;5.50;;
44816;SDS011;30529;53.570;9.964;2022-12-10T11:41:18;8.27;;;6.20;;
44816;SDS011;30529;53.570;9.964;2022-12-10T11:52:00;9.03;;;6.27;;
44816;SDS011;30529;53.570;9.964;2022-12-10T11:58:03;10.70;;;6.90;;
44816;SDS011;30529;53.570;9.964;2022-12-10T12:00:54;9.77;;;6.80;;
44816;SDS011;30529;53.570;9.964;2022-12-10T12:03:26;9.30;;;6.83;;
44816;SDS011;30529;53.570;9.964;2022-12-10T12:11:51;9.17;;;6.97;;
44816;SDS011;30529;53.570;9.964;2022-12-10T12:14:48;10.17;;;6.40;;
44816;SDS011;30529;53.570;9.964;2022-12-10T12:17:35;10.97;;;7.30;;
44816;SDS011;30529;53.570;9.964;2022-12-10T12:20:18;12.60;;;8.40;;
44816;SDS011;30529;53.570;9.964;2022-12-10T12:23:15;14.17;;;7.83;;
44816;SDS011;30529;53.570;9.964;2022-12-10T12:25:48;21.07;;;8.47;;
44816;SDS011;30529;53.570;9.964;2022-12-10T12:28:22;11.23;;;7.63;;
44816;SDS011;30529;53.570;9.964;2022-12-10T12:30:57;11.67;;;7.67;;
44816;SDS011;30529;53.570;9.964;2022-12-10T12:33:41;9.07;;;6.60;;
44816;SDS011;30529;53.570;9.964;2022-12-10T12:36:21;12.70;;;8.47;;
44816;SDS011;30529;53.570;9.964;2022-12-10T12:38:56;11.53;;;8.40;;
44816;SDS011;30529;53.570;9.964;2022-12-10T12:44:13;13.30;;;8.97;;
44816;SDS011;30529;53.570;9.964;2022-12-10T12:46:47;14.37;;;9.37;;
44816;SDS011;30529;53.570;9.964;2022-12-10T12:49:22;14.20;;;8.07;;
44816;SDS011;30529;53.570;9.964;2022-12-10T12:52:09;15.07;;;8.53;;
44816;SDS011;30529;53.570;9.964;2022-12-10T12:54:53;13.97;;;8.63;;
44816;SDS011;30529;53.570;9.964;2022-12-10T12:57:27;15.70;;;8.80;;
44816;SDS011;30529;53.570;9.964;2022-12-10T13:00:08;18.93;;;9.50;;
44816;SDS011;30529;53.570;9.964;2022-12-10T13:05:28;16.10;;;8.53;;
44816;SDS011;30529;53.570;9.964;2022-12-10T13:08:22;15.30;;;9.80;;
44816;SDS011;30529;53.570;9.964;2022-12-10T13:13:30;21.17;;;10.20;;
44816;SDS011;30529;53.570;9.964;2022-12-10T13:24:21;12.93;;;8.10;;
44816;SDS011;30529;53.570;9.964;2022-12-10T13:29:44;13.20;;;8.23;;
44816;SDS011;30529;53.570;9.964;2022-12-10T13:42:36;16.47;;;8.43;;
44816;SDS011;30529;53.570;9.964;2022-12-10T13:55:38;13.93;;;8.50;;
44816;SDS011;30529;53.570;9.964;2022-12-10T13:58:39;14.53;;;8.37;;
44816;SDS011;30529;53.570;9.964;2022-12-10T14:04:46;10.93;;;7.53;;
44816;SDS011;30529;53.570;9.964;2022-12-10T14:07:37;12.60;;;7.33;;
44816;SDS011;30529;53.570;9.964;2022-12-10T14:10:07;12.73;;;7.50;;
44816;SDS011;30529;53.570;9.964;2022-12-10T14:12:39;10.97;;;7.30;;
44816;SDS011;30529;53.570;9.964;2022-12-10T14:15:14;11.03;;;6.53;;
44816;SDS011;30529;53.570;9.964;2022-12-10T14:18:03;10.60;;;6.97;;
44816;SDS011;30529;53.570;9.964;2022-12-10T14:20:36;11.97;;;7.53;;
44816;SDS011;30529;53.570;9.964;2022-12-10T14:23:19;11.93;;;7.77;;
44816;SDS011;30529;53.570;9.964;2022-12-10T14:26:04;11.60;;;7.90;;
44816;SDS011;30529;53.570;9.964;2022-12-10T14:28:31;12.37;;;7.70;;
44816;SDS011;30529;53.570;9.964;2022-12-10T14:30:58;13.27;;;8.23;;
44816;SDS011;30529;53.570;9.964;2022-12-10T14:33:24;12.07;;;7.67;;
44816;SDS011;30529;53.570;9.964;2022-12-10T14:35:51;10.67;;;7.60;;
44816;SDS011;30529;53.570;9.964;2022-12-10T14:38:27;10.23;;;6.90;;
44816;SDS011;30529;53.570;9.964;2022-12-10T14:40:57;9.83;;;6.63;;
44816;SDS011;30529;53.570;9.964;2022-12-10T14:43:26;12.50;;;6.73;;
44816;SDS011;30529;53.570;9.964;2022-12-10T14:46:00;10.23;;;6.83;;
44816;SDS011;30529;53.570;9.964;2022-12-10T14:48:28;9.80;;;6.87;;
44816;SDS011;30529;53.570;9.964;2022-12-10T14:50:56;10.97;;;6.87;;
44816;SDS011;30529;53.570;9.964;2022-12-10T14:53:28;11.00;;;7.13;;
44816;SDS011;30529;53.570;9.964;2022-12-10T14:55:57;11.33;;;7.47;;
44816;SDS011;30529;53.570;9.964;2022-12-10T14:58:32;12.00;;;7.80;;
44816;SDS011;30529;53.570;9.964;2022-12-10T15:01:34;11.77;;;7.67;;
44816;SDS011;30529;53.570;9.964;2022-12-10T15:04:06;12.10;;;8.10;;
44816;SDS011;30529;53.570;9.964;2022-12-10T15:06:44;11.27;;;8.13;;
44816;SDS011;30529;53.570;9.964;2022-12-10T15:09:22;10.43;;;7.57;;
44816;SDS011;30529;53.570;9.964;2022-12-10T15:11:54;10.87;;;7.37;;
44816;SDS011;30529;53.570;9.964;2022-12-10T15:14:21;12.50;;;7.83;;
44816;SDS011;30529;53.570;9.964;2022-12-10T15:16:49;13.03;;;8.20;;
44816;SDS011;30529;53.570;9.964;2022-12-10T15:21:45;12.60;;;7.67;;
44816;SDS011;30529;53.570;9.964;2022-12-10T15:24:17;12.23;;;7.80;;
44816;SDS011;30529;53.570;9.964;2022-12-10T15:26:47;11.50;;;7.50;;
44816;SDS011;30529;53.570;9.964;2022-12-10T15:31:53;12.60;;;7.97;;
44816;SDS011;30529;53.570;9.964;2022-12-10T15:34:28;13.50;;;8.73;;
44816;SDS011;30529;53.570;9.964;2022-12-10T15:37:02;14.73;;;8.77;;
44816;SDS011;30529;53.570;9.964;2022-12-10T15:42:04;10.93;;;7.50;;
44816;SDS011;30529;53.570;9.964;2022-12-10T15:47:28;11.67;;;8.67;;
44816;SDS011;30529;53.570;9.964;2022-12-10T15:49:55;12.80;;;8.13;;
44816;SDS011;30529;53.570;9.964;2022-12-10T15:52:22;13.87;;;8.10;;
44816;SDS011;30529;53.570;9.964;2022-12-10T15:54:53;11.03;;;7.47;;
44816;SDS011;30529;53.570;9.964;2022-12-10T15:57:21;14.20;;;9.03;;
44816;SDS011;30529;53.570;9.964;2022-12-10T15:59:50;16.80;;;8.87;;
44816;SDS011;30529;53.570;9.964;2022-12-10T16:02:25;12.63;;;8.37;;
44816;SDS011;30529;53.570;9.964;2022-12-10T16:08:09;14.20;;;8.97;;
44816;SDS011;30529;53.570;9.964;2022-12-10T16:10:51;16.97;;;8.67;;
44816;SDS011;30529;53.570;9.964;2022-12-10T16:13:20;12.67;;;8.67;;
44816;SDS011;30529;53.570;9.964;2022-12-10T16:15:50;14.53;;;8.73;;
44816;SDS011;30529;53.570;9.964;2022-12-10T16:18:19;12.93;;;8.63;;
44816;SDS011;30529;53.570;9.964;2022-12-10T16:20:45;14.20;;;8.97;;
44816;SDS011;30529;53.570;9.964;2022-12-10T16:23:11;14.13;;;8.87;;
44816;SDS011;30529;53.570;9.964;2022-12-10T16:25:39;13.70;;;8.13;;
44816;SDS011;30529;53.570;9.964;2022-12-10T16:28:16;13.73;;;8.53;;
44816;SDS011;30529;53.570;9.964;2022-12-10T16:30:50;14.83;;;9.20;;
44816;SDS011;30529;53.570;9.964;2022-12-10T16:33:28;16.10;;;9.83;;
44816;SDS011;30529;53.570;9.964;2022-12-10T16:35:54;13.67;;;8.97;;
44816;SDS011;30529;53.570;9.964;2022-12-10T16:38:22;14.03;;;9.57;;
44816;SDS011;30529;53.570;9.964;2022-12-10T16:40:49;14.63;;;9.10;;
44816;SDS011;30529;53.570;9.964;2022-12-10T16:45:41;13.67;;;9.27;;
44816;SDS011;30529;53.570;9.964;2022-12-10T16:48:08;17.00;;;9.27;;
44816;SDS011;30529;53.570;9.964;2022-12-10T16:50:34;14.47;;;9.57;;
44816;SDS011;30529;53.570;9.964;2022-12-10T16:53:06;15.60;;;9.47;;